createdAt,value
2023-04-09T00:02:04.923Z,11.03
2023-04-09T00:04:32.003Z,14.50
2023-04-09T00:06:59.006Z,20.07
2023-04-09T00:09:26.167Z,13.33
2023-04-09T00:11:53.147Z,12.23
2023-04-09T00:14:20.141Z,15.70
2023-04-09T00:16:47.066Z,15.40
2023-04-09T00:19:14.112Z,19.10
2023-04-09T00:21:41.196Z,11.87
2023-04-09T00:24:08.453Z,14.87
2023-04-09T00:26:35.795Z,13.80
2023-04-09T00:29:02.940Z,15.27
2023-04-09T00:31:30.161Z,16.10
2023-04-09T00:33:57.213Z,22.67
2023-04-09T00:36:26.594Z,16.87
2023-04-09T00:38:54.279Z,17.77
2023-04-09T00:41:21.463Z,15.83
2023-04-09T00:43:48.391Z,12.50
2023-04-09T00:46:16.343Z,13.73
2023-04-09T00:48:43.558Z,17.80
2023-04-09T00:51:10.484Z,12.83
2023-04-09T00:53:37.506Z,12.00
2023-04-09T00:56:05.283Z,14.40
2023-04-09T00:58:32.298Z,15.63
2023-04-09T01:00:59.337Z,16.10
2023-04-09T01:03:26.520Z,15.30
2023-04-09T01:06:42.416Z,13.43
2023-04-09T01:09:50.981Z,21.93
2023-04-09T01:12:51.398Z,13.27
2023-04-09T01:15:26.982Z,13.73
2023-04-09T01:18:13.909Z,9.20
2023-04-09T01:20:53.858Z,9.10
2023-04-09T01:23:35.988Z,11.13
2023-04-09T01:26:19.514Z,25.03
2023-04-09T01:28:56.423Z,9.87
2023-04-09T01:31:36.953Z,13.03
2023-04-09T01:34:05.510Z,8.47
2023-04-09T01:36:33.560Z,9.57
2023-04-09T01:39:02.403Z,8.93
2023-04-09T01:41:32.916Z,10.30
2023-04-09T01:44:02.482Z,10.07
2023-04-09T01:46:31.235Z,11.80
2023-04-09T01:48:58.795Z,10.93
2023-04-09T01:51:27.494Z,13.37
2023-04-09T01:53:54.465Z,12.67
2023-04-09T01:56:21.597Z,9.33
2023-04-09T01:58:48.532Z,10.50
2023-04-09T02:01:32.177Z,11.37
2023-04-09T02:04:04.638Z,9.67
2023-04-09T02:06:50.593Z,8.90
2023-04-09T02:09:20.615Z,14.23
2023-04-09T02:11:50.336Z,10.37
2023-04-09T02:14:20.572Z,9.73
2023-04-09T02:16:48.605Z,12.53
2023-04-09T02:19:15.732Z,9.57
2023-04-09T02:21:42.756Z,11.30
2023-04-09T02:24:09.792Z,8.53
2023-04-09T02:26:36.742Z,10.00
2023-04-09T02:29:03.866Z,9.67
2023-04-09T02:31:31.121Z,9.60
2023-04-09T02:33:58.198Z,10.90
2023-04-09T02:36:25.942Z,14.07
2023-04-09T02:38:53.055Z,11.77
2023-04-09T02:41:21.011Z,18.17
2023-04-09T02:43:48.053Z,15.60
2023-04-09T02:46:14.974Z,17.20
2023-04-09T02:48:41.986Z,20.10
2023-04-09T02:51:08.937Z,21.20
2023-04-09T02:53:37.651Z,21.17
2023-04-09T02:56:04.967Z,18.87
2023-04-09T02:58:32.009Z,17.50
2023-04-09T03:00:58.970Z,20.70
2023-04-09T03:03:26.351Z,22.30
2023-04-09T03:05:53.366Z,21.90
2023-04-09T03:08:20.530Z,18.10
2023-04-09T03:10:47.549Z,19.73
2023-04-09T03:13:14.528Z,10.27
2023-04-09T03:15:41.701Z,14.00
2023-04-09T03:18:08.877Z,11.97
2023-04-09T03:20:39.492Z,18.43
2023-04-09T03:23:08.548Z,27.20
2023-04-09T03:25:40.670Z,18.30
2023-04-09T03:28:12.552Z,17.63
2023-04-09T03:30:43.445Z,18.07
2023-04-09T03:33:10.446Z,19.40
2023-04-09T03:35:47.925Z,18.73
2023-04-09T03:38:16.255Z,16.57
2023-04-09T03:40:43.330Z,15.90
2023-04-09T03:43:10.518Z,16.10
2023-04-09T03:45:39.885Z,13.87
2023-04-09T03:48:20.377Z,13.13
2023-04-09T03:50:47.519Z,16.33
2023-04-09T03:53:19.302Z,15.10
2023-04-09T03:55:46.437Z,15.50
2023-04-09T03:58:20.572Z,12.07
2023-04-09T04:00:48.736Z,17.83
2023-04-09T04:03:32.161Z,14.70
2023-04-09T04:06:09.476Z,15.47
2023-04-09T04:08:59.273Z,17.17
2023-04-09T04:11:35.832Z,15.20
2023-04-09T04:14:02.951Z,10.73
2023-04-09T04:16:30.024Z,19.73
2023-04-09T04:18:57.386Z,15.40
2023-04-09T04:21:24.854Z,17.63
2023-04-09T04:23:58.890Z,18.97
2023-04-09T04:26:28.577Z,18.27
2023-04-09T04:28:56.031Z,22.00
2023-04-09T04:31:43.305Z,17.73
2023-04-09T04:34:11.153Z,18.40
2023-04-09T04:36:39.010Z,18.23
2023-04-09T04:39:07.436Z,21.40
2023-04-09T04:41:48.573Z,15.70
2023-04-09T04:44:20.949Z,15.53
2023-04-09T04:46:51.329Z,20.20
2023-04-09T04:49:18.366Z,22.97
2023-04-09T04:51:47.777Z,15.17
2023-04-09T04:54:16.398Z,25.47
2023-04-09T04:56:51.132Z,17.53
2023-04-09T04:59:31.625Z,28.67
2023-04-09T05:02:02.730Z,22.57
2023-04-09T05:04:34.527Z,23.87
2023-04-09T05:07:02.201Z,22.50
2023-04-09T05:09:29.314Z,21.07
2023-04-09T05:12:01.297Z,15.43
2023-04-09T05:14:28.656Z,18.63
2023-04-09T05:16:55.750Z,17.80
2023-04-09T05:19:26.514Z,17.43
2023-04-09T05:22:00.490Z,13.83
2023-04-09T05:24:27.437Z,11.03
2023-04-09T05:26:55.042Z,16.37
2023-04-09T05:29:22.566Z,15.17
2023-04-09T05:31:49.554Z,19.20
2023-04-09T05:34:28.102Z,17.23
2023-04-09T05:36:56.743Z,14.73
2023-04-09T05:39:25.335Z,18.30
2023-04-09T05:41:52.932Z,16.30
2023-04-09T05:44:19.933Z,17.43
2023-04-09T05:46:47.966Z,11.60
2023-04-09T05:49:19.063Z,12.90
2023-04-09T05:51:50.773Z,12.73
2023-04-09T05:54:23.913Z,14.57
2023-04-09T05:56:52.455Z,15.60
2023-04-09T05:59:19.983Z,11.63
2023-04-09T06:01:47.054Z,13.20
2023-04-09T06:04:14.300Z,12.27
2023-04-09T06:06:41.471Z,13.57
2023-04-09T06:09:08.465Z,11.20
2023-04-09T06:11:38.443Z,12.37
2023-04-09T06:14:05.496Z,13.33
2023-04-09T06:16:33.589Z,10.77
2023-04-09T06:19:00.706Z,10.63
2023-04-09T06:21:27.940Z,13.00
2023-04-09T06:23:55.100Z,12.17
2023-04-09T06:26:22.146Z,16.50
2023-04-09T06:28:49.063Z,11.03
2023-04-09T06:31:16.385Z,9.77
2023-04-09T06:33:43.335Z,11.37
2023-04-09T06:36:10.933Z,13.07
2023-04-09T06:38:37.969Z,11.33
2023-04-09T06:41:08.355Z,11.73
2023-04-09T06:43:36.930Z,11.70
2023-04-09T06:46:03.888Z,11.50
2023-04-09T06:48:31.387Z,11.50
2023-04-09T06:50:58.392Z,10.70
2023-04-09T06:53:25.403Z,12.33
2023-04-09T06:55:52.744Z,10.97
2023-04-09T06:58:21.033Z,12.33
2023-04-09T07:00:47.982Z,11.27
2023-04-09T07:03:15.688Z,14.77
2023-04-09T07:05:43.272Z,12.07
2023-04-09T07:08:11.713Z,13.80
2023-04-09T07:10:39.323Z,9.93
2023-04-09T07:13:06.747Z,11.40
2023-04-09T07:15:34.089Z,12.17
2023-04-09T07:18:01.460Z,11.17
2023-04-09T07:20:28.814Z,12.93
2023-04-09T07:22:56.232Z,10.87
2023-04-09T07:25:23.886Z,25.03
2023-04-09T07:27:51.277Z,11.27
2023-04-09T07:30:18.868Z,10.20
2023-04-09T07:32:46.303Z,10.47
2023-04-09T07:35:13.663Z,9.17
2023-04-09T07:37:41.076Z,8.60
2023-04-09T07:40:08.985Z,9.70
2023-04-09T07:42:39.072Z,12.07
2023-04-09T07:45:07.413Z,8.73
2023-04-09T07:47:34.861Z,11.20
2023-04-09T07:50:02.519Z,10.13
2023-04-09T07:52:29.986Z,9.00
2023-04-09T07:54:57.920Z,10.23
2023-04-09T07:57:25.354Z,10.30
2023-04-09T07:59:53.978Z,9.93
2023-04-09T08:02:21.438Z,10.07
2023-04-09T08:04:49.025Z,11.23
2023-04-09T08:07:16.489Z,14.57
2023-04-09T08:09:43.858Z,9.83
2023-04-09T08:12:11.272Z,8.83
2023-04-09T08:14:38.639Z,8.33
2023-04-09T08:17:06.086Z,10.10
2023-04-09T08:19:33.592Z,8.47
2023-04-09T08:22:02.107Z,9.63
2023-04-09T08:24:29.552Z,8.77
2023-04-09T08:26:58.576Z,8.17
2023-04-09T08:29:26.698Z,8.00
2023-04-09T08:31:54.145Z,8.20
2023-04-09T08:34:22.145Z,6.13
2023-04-09T08:36:49.921Z,7.40
2023-04-09T08:39:20.866Z,16.43
2023-04-09T08:41:48.400Z,7.77
2023-04-09T08:44:16.746Z,8.47
2023-04-09T08:46:44.713Z,7.40
2023-04-09T08:49:12.907Z,8.13
2023-04-09T08:51:44.462Z,8.10
2023-04-09T08:54:16.147Z,7.90
2023-04-09T08:56:43.863Z,9.77
2023-04-09T08:59:11.220Z,13.57
2023-04-09T09:01:38.658Z,9.30
2023-04-09T09:04:10.005Z,7.73
2023-04-09T09:06:39.543Z,5.27
2023-04-09T09:09:13.635Z,6.70
2023-04-09T09:11:45.831Z,9.90
2023-04-09T09:14:15.471Z,7.97
2023-04-09T09:16:55.729Z,8.40
2023-04-09T09:19:26.047Z,7.60
2023-04-09T09:21:57.908Z,7.63
2023-04-09T09:24:25.323Z,7.17
2023-04-09T09:26:54.476Z,5.23
2023-04-09T09:29:22.083Z,6.87
2023-04-09T09:31:51.152Z,6.77
2023-04-09T09:34:20.314Z,6.53
2023-04-09T09:36:48.003Z,7.03
2023-04-09T09:39:17.464Z,6.30
2023-04-09T09:41:46.029Z,5.60
2023-04-09T09:44:31.214Z,4.03
2023-04-09T09:46:59.604Z,6.40
2023-04-09T09:49:27.249Z,7.03
2023-04-09T09:51:57.935Z,7.07
2023-04-09T09:54:26.273Z,8.23
2023-04-09T09:56:58.393Z,5.10
2023-04-09T09:59:32.316Z,4.90
2023-04-09T10:02:06.039Z,5.43
2023-04-09T10:04:38.569Z,6.00
2023-04-09T10:07:08.210Z,4.97
2023-04-09T10:09:53.255Z,6.73
2023-04-09T10:12:23.885Z,4.90
2023-04-09T10:14:55.791Z,4.87
2023-04-09T10:17:23.121Z,5.80
2023-04-09T10:20:11.563Z,5.03
2023-04-09T10:22:39.327Z,4.40
2023-04-09T10:25:07.240Z,3.97
2023-04-09T10:27:34.664Z,3.17
2023-04-09T10:30:02.699Z,3.97
2023-04-09T10:32:36.139Z,5.43
2023-04-09T10:35:04.464Z,4.67
2023-04-09T10:37:32.093Z,9.93
2023-04-09T10:39:59.542Z,4.10
2023-04-09T10:42:41.931Z,3.90
2023-04-09T10:45:14.015Z,4.37
2023-04-09T10:47:43.072Z,4.30
2023-04-09T10:50:19.878Z,6.53
2023-04-09T10:52:48.653Z,3.33
2023-04-09T10:55:38.522Z,3.53
2023-04-09T10:58:13.189Z,3.40
2023-04-09T11:00:45.341Z,4.40
2023-04-09T11:03:44.071Z,5.90
2023-04-09T11:06:11.693Z,4.77
2023-04-09T11:08:39.524Z,3.30
2023-04-09T11:11:06.965Z,4.07
2023-04-09T11:13:34.611Z,4.43
2023-04-09T11:16:06.559Z,2.83
2023-04-09T11:18:36.951Z,3.97
2023-04-09T11:21:04.618Z,3.10
2023-04-09T11:23:33.072Z,3.80
2023-04-09T11:26:01.794Z,3.73
2023-04-09T11:28:29.166Z,3.50
2023-04-09T11:30:56.494Z,3.20
2023-04-09T11:33:23.861Z,4.27
2023-04-09T11:35:51.855Z,5.07
2023-04-09T11:38:19.275Z,4.50
2023-04-09T11:40:48.677Z,4.90
2023-04-09T11:43:17.104Z,5.10
2023-04-09T11:45:47.082Z,5.13
2023-04-09T11:48:15.132Z,5.50
2023-04-09T11:50:42.589Z,3.57
2023-04-09T11:53:23.075Z,4.80
2023-04-09T11:55:51.871Z,4.60
2023-04-09T11:58:22.245Z,4.97
2023-04-09T12:00:52.301Z,4.70
2023-04-09T12:03:19.657Z,5.80
2023-04-09T12:05:50.922Z,5.80
2023-04-09T12:08:24.979Z,4.77
2023-04-09T12:10:53.887Z,4.87
2023-04-09T12:13:21.233Z,4.23
2023-04-09T12:15:50.074Z,4.33
2023-04-09T12:18:17.169Z,4.77
2023-04-09T12:20:47.488Z,4.93
2023-04-09T12:23:14.690Z,5.47
2023-04-09T12:25:46.635Z,4.53
2023-04-09T12:28:16.672Z,4.53
2023-04-09T12:30:44.440Z,4.87
2023-04-09T12:33:11.678Z,4.53
2023-04-09T12:35:39.018Z,5.03
2023-04-09T12:38:06.383Z,6.07
2023-04-09T12:40:33.933Z,5.20
2023-04-09T12:43:01.456Z,5.10
2023-04-09T12:45:29.680Z,5.53
2023-04-09T12:47:56.978Z,4.50
2023-04-09T12:50:24.343Z,4.10
2023-04-09T12:52:51.517Z,5.20
2023-04-09T12:55:18.589Z,5.83
2023-04-09T12:57:49.307Z,4.10
2023-04-09T13:00:16.469Z,4.13
2023-04-09T13:02:43.697Z,3.90
2023-04-09T13:05:10.990Z,4.03
2023-04-09T13:07:37.965Z,4.70
2023-04-09T13:10:05.463Z,4.40
2023-04-09T13:12:32.554Z,5.73
2023-04-09T13:14:59.493Z,5.07
2023-04-09T13:17:26.658Z,4.70
2023-04-09T13:19:53.819Z,4.00
2023-04-09T13:22:21.102Z,4.60
2023-04-09T13:24:48.090Z,4.50
2023-04-09T13:27:16.504Z,6.33
2023-04-09T13:29:43.551Z,4.80
2023-04-09T13:32:11.292Z,4.80
2023-04-09T13:34:39.736Z,4.70
2023-04-09T13:37:07.211Z,3.97
2023-04-09T13:39:34.264Z,3.53
2023-04-09T13:42:05.431Z,4.23
2023-04-09T13:44:37.072Z,6.27
2023-04-09T13:47:04.044Z,5.07
2023-04-09T13:49:31.090Z,4.00
2023-04-09T13:51:59.023Z,4.10
2023-04-09T13:54:25.971Z,4.50
2023-04-09T13:56:52.916Z,4.37
2023-04-09T13:59:19.986Z,10.83
2023-04-09T14:01:47.216Z,4.60
2023-04-09T14:04:14.359Z,6.33
2023-04-09T14:06:42.401Z,6.67
2023-04-09T14:09:10.460Z,4.03
2023-04-09T14:11:37.831Z,6.20
2023-04-09T14:14:05.641Z,6.07
2023-04-09T14:16:32.774Z,4.53
2023-04-09T14:18:59.787Z,4.90
2023-04-09T14:21:27.049Z,4.90
2023-04-09T14:23:54.121Z,3.93
2023-04-09T14:26:22.931Z,5.63
2023-04-09T14:28:51.704Z,3.73
2023-04-09T14:31:21.443Z,3.37
2023-04-09T14:33:49.181Z,4.40
2023-04-09T14:36:16.740Z,4.70
2023-04-09T14:38:43.871Z,3.53
2023-04-09T14:41:10.885Z,3.73
2023-04-09T14:43:37.915Z,4.20
2023-04-09T14:46:06.472Z,5.33
2023-04-09T14:48:34.333Z,4.63
2023-04-09T14:51:01.347Z,5.03
2023-04-09T14:53:28.294Z,4.60
2023-04-09T14:55:55.265Z,5.43
2023-04-09T14:58:22.295Z,5.50
2023-04-09T15:00:50.347Z,5.13
2023-04-09T15:03:17.902Z,4.30
2023-04-09T15:05:46.001Z,5.87
2023-04-09T15:08:13.901Z,4.17
2023-04-09T15:10:40.860Z,4.50
2023-04-09T15:13:07.848Z,4.13
2023-04-09T15:15:35.007Z,5.33
2023-04-09T15:18:05.859Z,4.27
2023-04-09T15:20:37.780Z,5.07
2023-04-09T15:23:04.755Z,4.50
2023-04-09T15:25:32.737Z,4.67
2023-04-09T15:27:59.810Z,4.23
2023-04-09T15:30:26.924Z,5.00
2023-04-09T15:32:54.007Z,4.40
2023-04-09T15:35:25.247Z,4.00
2023-04-09T15:37:52.446Z,3.87
2023-04-09T15:40:20.450Z,4.00
2023-04-09T15:42:47.443Z,5.67
2023-04-09T15:45:18.076Z,4.40
2023-04-09T15:47:46.047Z,3.83
2023-04-09T15:50:13.911Z,4.17
2023-04-09T15:52:41.199Z,5.30
2023-04-09T15:55:09.101Z,4.20
2023-04-09T15:57:36.462Z,4.57
2023-04-09T16:00:03.867Z,5.00
2023-04-09T16:02:32.143Z,4.53
2023-04-09T16:04:59.178Z,4.33
2023-04-09T16:07:26.669Z,6.27
2023-04-09T16:09:53.612Z,4.50
2023-04-09T16:12:20.619Z,4.67
2023-04-09T16:14:47.619Z,3.37
2023-04-09T16:17:14.590Z,4.13
2023-04-09T16:19:43.002Z,4.00
2023-04-09T16:22:10.482Z,4.00
2023-04-09T16:24:37.568Z,4.90
2023-04-09T16:27:04.628Z,4.27
2023-04-09T16:29:31.610Z,5.17
2023-04-09T16:31:58.641Z,5.10
2023-04-09T16:34:25.682Z,5.77
2023-04-09T16:36:52.746Z,4.57
2023-04-09T16:39:19.801Z,5.83
2023-04-09T16:41:46.760Z,6.30
2023-04-09T16:44:13.895Z,6.47
2023-04-09T16:46:40.967Z,6.37
2023-04-09T16:49:08.028Z,5.80
2023-04-09T16:51:35.175Z,5.50
2023-04-09T16:54:02.135Z,6.27
2023-04-09T16:56:29.169Z,6.33
2023-04-09T16:58:56.256Z,6.10
2023-04-09T17:01:23.254Z,6.57
2023-04-09T17:03:50.516Z,6.73
2023-04-09T17:06:18.031Z,5.80
2023-04-09T17:08:45.703Z,4.83
2023-04-09T17:11:17.089Z,6.27
2023-04-09T17:13:44.104Z,7.03
2023-04-09T17:16:11.828Z,7.13
2023-04-09T17:18:39.061Z,7.20
2023-04-09T17:21:06.808Z,6.07
2023-04-09T17:23:33.742Z,7.70
2023-04-09T17:26:01.678Z,8.40
2023-04-09T17:28:28.675Z,6.67
2023-04-09T17:30:55.734Z,6.83
2023-04-09T17:33:22.753Z,6.90
2023-04-09T17:35:49.773Z,7.87
2023-04-09T17:38:21.417Z,9.60
2023-04-09T17:40:48.590Z,9.53
2023-04-09T17:43:15.670Z,7.83
2023-04-09T17:45:42.652Z,9.43
2023-04-09T17:48:09.804Z,9.73
2023-04-09T17:50:39.621Z,12.47
2023-04-09T17:53:06.629Z,12.87
2023-04-09T17:55:33.681Z,10.00
2023-04-09T17:58:00.780Z,9.27
2023-04-09T18:00:27.955Z,12.43
2023-04-09T18:02:56.230Z,8.70
2023-04-09T18:05:23.564Z,8.77
2023-04-09T18:07:51.665Z,12.23
2023-04-09T18:10:19.589Z,8.13
2023-04-09T18:12:46.635Z,7.73
2023-04-09T18:15:13.752Z,8.47
2023-04-09T18:17:40.798Z,9.83
2023-04-09T18:20:08.331Z,21.23
2023-04-09T18:22:35.389Z,7.37
2023-04-09T18:25:02.582Z,7.20
2023-04-09T18:27:29.688Z,8.80
2023-04-09T18:29:56.684Z,9.57
2023-04-09T18:32:25.235Z,7.83
2023-04-09T18:34:52.900Z,7.77
2023-04-09T18:37:21.020Z,5.90
2023-04-09T18:39:48.020Z,9.47
2023-04-09T18:42:14.985Z,13.23
2023-04-09T18:44:42.408Z,9.43
2023-04-09T18:47:10.551Z,7.60
2023-04-09T18:49:37.635Z,8.17
2023-04-09T18:52:09.157Z,18.23
2023-04-09T18:54:37.455Z,10.53
2023-04-09T18:57:04.647Z,10.60
2023-04-09T18:59:34.598Z,9.50
2023-04-09T19:02:05.729Z,8.23
2023-04-09T19:04:36.464Z,10.17
2023-04-09T19:07:03.804Z,8.37
2023-04-09T19:09:32.086Z,6.80
2023-04-09T19:11:59.095Z,8.43
2023-04-09T19:14:26.179Z,11.07
2023-04-09T19:16:53.646Z,39.10
2023-04-09T19:19:20.635Z,15.63
2023-04-09T19:21:47.703Z,17.30
2023-04-09T19:24:14.677Z,12.20
2023-04-09T19:26:41.603Z,18.23
2023-04-09T19:29:08.877Z,8.93
2023-04-09T19:31:36.089Z,10.50
2023-04-09T19:34:03.063Z,10.13
2023-04-09T19:36:32.326Z,8.90
2023-04-09T19:38:59.294Z,10.87
2023-04-09T19:41:26.276Z,10.87
2023-04-09T19:43:53.218Z,9.40
2023-04-09T19:46:20.283Z,14.43
2023-04-09T19:48:48.135Z,14.70
2023-04-09T19:51:20.023Z,13.67
2023-04-09T19:53:48.017Z,22.87
2023-04-09T19:56:16.098Z,23.47
2023-04-09T19:58:44.367Z,13.80
2023-04-09T20:01:12.130Z,17.43
2023-04-09T20:03:39.189Z,11.50
2023-04-09T20:06:10.512Z,22.50
2023-04-09T20:08:38.047Z,10.53
2023-04-09T20:11:05.616Z,12.70
2023-04-09T20:13:33.172Z,14.83
2023-04-09T20:16:00.624Z,21.23
2023-04-09T20:18:28.593Z,18.63
2023-04-09T20:20:55.571Z,31.50
2023-04-09T20:23:22.974Z,37.50
2023-04-09T20:25:56.803Z,27.40
2023-04-09T20:28:24.187Z,23.47
2023-04-09T20:30:51.145Z,20.03
2023-04-09T20:33:18.587Z,19.30
2023-04-09T20:35:45.723Z,16.43
2023-04-09T20:38:12.761Z,17.33
2023-04-09T20:40:39.734Z,18.97
2023-04-09T20:43:06.712Z,17.27
2023-04-09T20:45:33.873Z,14.47
2023-04-09T20:48:01.484Z,16.03
2023-04-09T20:50:28.870Z,14.60
2023-04-09T20:52:56.055Z,20.50
2023-04-09T20:55:25.370Z,18.83
2023-04-09T20:57:55.457Z,15.53
2023-04-09T21:00:23.047Z,17.47
2023-04-09T21:02:50.326Z,20.23
2023-04-09T21:05:23.590Z,13.10
2023-04-09T21:07:55.614Z,12.53
2023-04-09T21:10:22.669Z,12.20
2023-04-09T21:12:49.726Z,11.40
2023-04-09T21:15:16.863Z,11.83
2023-04-09T21:17:43.913Z,14.90
2023-04-09T21:20:11.715Z,15.13
2023-04-09T21:22:38.677Z,10.20
2023-04-09T21:25:06.445Z,16.87
2023-04-09T21:27:33.446Z,14.70
2023-04-09T21:30:00.601Z,13.47
2023-04-09T21:32:28.008Z,12.57
2023-04-09T21:34:55.378Z,10.90
2023-04-09T21:37:22.654Z,20.03
2023-04-09T21:39:49.727Z,20.07
2023-04-09T21:42:16.877Z,14.90
2023-04-09T21:44:43.840Z,11.80
2023-04-09T21:47:12.161Z,10.97
2023-04-09T21:49:40.451Z,12.47
2023-04-09T21:52:14.377Z,11.70
2023-04-09T21:54:43.213Z,11.10
2023-04-09T21:57:11.431Z,10.77
2023-04-09T21:59:40.963Z,15.33
2023-04-09T22:02:08.957Z,15.60
2023-04-09T22:04:36.072Z,13.23
2023-04-09T22:07:03.717Z,10.80
2023-04-09T22:09:31.480Z,13.57
2023-04-09T22:11:59.634Z,14.90
2023-04-09T22:14:29.373Z,13.90
2023-04-09T22:16:58.249Z,11.23
2023-04-09T22:19:26.150Z,12.83
2023-04-09T22:21:53.514Z,10.43
2023-04-09T22:24:27.220Z,15.97
2023-04-09T22:26:54.263Z,13.27
2023-04-09T22:29:21.322Z,14.30
2023-04-09T22:31:48.319Z,18.13
2023-04-09T22:34:21.459Z,16.50
2023-04-09T22:36:49.098Z,16.33
2023-04-09T22:39:16.100Z,17.10
2023-04-09T22:41:43.230Z,13.33
2023-04-09T22:44:10.524Z,13.67
2023-04-09T22:46:37.783Z,14.23
2023-04-09T22:49:05.874Z,13.50
2023-04-09T22:51:36.500Z,15.13
2023-04-09T22:54:03.788Z,18.40
2023-04-09T22:56:31.909Z,17.00
2023-04-09T22:58:59.290Z,14.97
2023-04-09T23:01:27.581Z,11.47
2023-04-09T23:03:55.465Z,17.07
2023-04-09T23:06:22.696Z,14.90
2023-04-09T23:08:50.550Z,10.93
2023-04-09T23:11:17.828Z,14.20
2023-04-09T23:13:45.351Z,14.00
2023-04-09T23:16:13.352Z,16.17
2023-04-09T23:18:40.721Z,15.17
2023-04-09T23:21:09.087Z,15.47
2023-04-09T23:23:37.657Z,12.60
2023-04-09T23:26:05.330Z,13.10
2023-04-09T23:28:32.371Z,12.90
2023-04-09T23:30:59.420Z,12.30
2023-04-09T23:33:26.602Z,14.93
2023-04-09T23:35:53.768Z,10.47
2023-04-09T23:38:20.701Z,9.13
2023-04-09T23:40:49.291Z,10.87
2023-04-09T23:43:16.472Z,13.40
2023-04-09T23:45:44.489Z,15.70
2023-04-09T23:48:12.391Z,16.70
2023-04-09T23:50:41.145Z,17.60
2023-04-09T23:53:08.337Z,12.20
2023-04-09T23:55:40.745Z,13.17
2023-04-09T23:58:08.446Z,14.20
